עמוד ראשי
METAR-TAF:

METAR-TAF

שדות תעופה :

Palmer, אלסקה, ארצות הברית

קו רוחב: 61-36N, קו אורך: 149-05W, גובה: 74מטר

תצפית מזג אוויר נוכחית

הדו"ח נערך לפני 36דקות, בשעה 21:53 UTC
רוח 5קשר מכיוון דרום
טמפרטורת 21 צלסיוס
לחות 64%
לחץ 1016 hPa
ראות: 16.1קילומטר
עננים בינוניים בגובה 9000רגל

METAR: PAAQ 242153Z 19005KT 10SM BKN090 21/14 A3000 RMK AO2 SLP158 T02060144

זמן: 14:29 (22:29 UTC)

תחזית

הדו"ח נערך לפני 5 שעות ו 7דקות, בשעה 17:22 UTC
תחזית בתוקף מ 24 ב 18 UTC עד 25 ב 18 UTC
רוח 4קשר עם כיוונים משתנים
ראות: 10קילומטר
עננים פזורים בגובה 3000רגל
עננים בינוניים בגובה 4000רגל
מ 24 ב 2200UTC
רוח 8קשר מכיוון דרום-מזרח עם משבים עד 16קשר
ראות: 10קילומטר
עננים פזורים בגובה 4000רגל
עננים בינוניים בגובה 8000רגל
עננים בינוניים בגובה 20000רגל
מ 25 ב 0200UTC
רוח 8קשר מכיוון דרום-מזרח עם משבים עד 16קשר
ראות: 10קילומטר
עננים בינוניים בגובה 4000רגל
עננים בינוניים בגובה 10000רגל
עננים בינוניים בגובה 20000רגל
ממטרים במרחב,

TAF: PAAQ 241722Z 2418/2518 VRB04KT P6SM SCT030 BKN040 FM242200 13008G16KT P6SM SCT040 BKN080 BKN200 FM250200 13008G16KT P6SM VCSH BKN040 BKN100 BKN200

תצפיות ותחזיות מזג אוויר לגבי יותר מ- 4,000 שדות תעופה ברחבי העולם. דוחות METAR ו- TAF.

התחנות הזמינות מסומנות בנקודות צהובות ואדומות על גבי המפה.

העבר את העכבר לנקודה הצבעונית על מנת לראות את שם התחנה.

לאחר מכן, לחץ כדי לראות את תוכן ואת תחזיות מזג האוויר.

כדי לשנות את המפה: לחץ על הכפתורים הירוקים עם הפלוס השחור כדי להתקרב; על הכפתור הירוק עם המקף כדי להתרחק; או בחיצים הירוקים למפות סמוכות.


METAR-TAF: